createdAt,value
2018-11-22T00:01:23.297Z,5.40
2018-11-22T00:04:04.850Z,5.40
2018-11-22T00:06:45.940Z,5.40
2018-11-22T00:09:27.555Z,5.30
2018-11-22T00:12:09.172Z,5.40
2018-11-22T00:14:50.488Z,5.50
2018-11-22T00:17:31.934Z,5.40
2018-11-22T00:20:13.570Z,5.50
2018-11-22T00:22:54.715Z,5.50
2018-11-22T00:25:35.719Z,5.60
2018-11-22T00:28:16.959Z,5.70
2018-11-22T00:34:07.411Z,5.70
2018-11-22T00:36:48.279Z,5.70
2018-11-22T00:39:29.207Z,5.70
2018-11-22T00:42:10.289Z,5.50
2018-11-22T00:44:51.362Z,5.50
2018-11-22T00:47:32.268Z,5.50
2018-11-22T00:50:17.271Z,5.50
2018-11-22T00:52:59.027Z,5.50
2018-11-22T00:55:40.738Z,5.60
2018-11-22T00:58:21.665Z,5.60
2018-11-22T01:01:03.051Z,5.50
2018-11-22T01:03:44.671Z,5.40
2018-11-22T01:06:25.716Z,5.40
2018-11-22T01:09:06.806Z,5.40
2018-11-22T01:11:47.804Z,5.40
2018-11-22T01:14:28.963Z,5.50
2018-11-22T01:17:09.890Z,5.50
2018-11-22T01:19:51.380Z,5.50
2018-11-22T01:22:33.011Z,5.50
2018-11-22T01:25:15.301Z,5.50
2018-11-22T01:27:56.418Z,5.60
2018-11-22T01:30:37.919Z,5.60
2018-11-22T01:33:18.817Z,5.60
2018-11-22T01:35:59.694Z,5.60
2018-11-22T01:38:41.202Z,5.60
2018-11-22T01:41:22.655Z,5.60
2018-11-22T01:44:04.187Z,5.70
2018-11-22T01:46:45.161Z,5.70
2018-11-22T01:49:26.409Z,5.80
2018-11-22T01:52:08.060Z,5.80
2018-11-22T01:54:49.241Z,5.80
2018-11-22T01:57:30.903Z,5.90
2018-11-22T02:00:12.286Z,5.80
2018-11-22T02:02:53.473Z,5.80
2018-11-22T02:05:35.138Z,5.80
2018-11-22T02:08:16.235Z,5.80
2018-11-22T02:10:57.912Z,5.90
2018-11-22T02:13:42.048Z,5.90
2018-11-22T02:16:23.037Z,5.90
2018-11-22T02:19:04.926Z,5.90
2018-11-22T02:21:45.996Z,5.80
2018-11-22T02:24:27.419Z,5.80
2018-11-22T02:27:08.646Z,5.90
2018-11-22T02:29:50.259Z,5.80
2018-11-22T02:32:31.880Z,5.80
2018-11-22T02:35:13.575Z,5.80
2018-11-22T02:37:54.677Z,5.80
2018-11-22T02:40:35.538Z,5.80
2018-11-22T02:43:16.369Z,5.80
2018-11-22T02:45:57.749Z,5.80
2018-11-22T02:48:39.220Z,5.80
2018-11-22T02:51:20.063Z,5.80
2018-11-22T02:54:01.487Z,5.80
2018-11-22T02:56:42.377Z,5.90
2018-11-22T02:59:23.956Z,5.90
2018-11-22T03:02:05.385Z,5.80
2018-11-22T03:04:46.530Z,5.80
2018-11-22T03:07:27.748Z,5.70
2018-11-22T03:10:09.177Z,5.80
2018-11-22T03:12:50.172Z,5.80
2018-11-22T03:15:31.445Z,5.80
2018-11-22T03:18:12.415Z,5.80
2018-11-22T03:20:54.166Z,5.90
2018-11-22T03:23:35.819Z,5.80
2018-11-22T03:26:16.998Z,5.80
2018-11-22T03:28:58.668Z,5.60
2018-11-22T03:31:40.310Z,5.60
2018-11-22T03:34:21.055Z,5.60
2018-11-22T03:40:07.203Z,5.70
2018-11-22T03:42:48.523Z,5.50
2018-11-22T03:45:29.812Z,5.50
2018-11-22T03:48:10.785Z,5.50
2018-11-22T03:50:51.711Z,5.60
2018-11-22T03:53:32.944Z,5.60
2018-11-22T03:58:57.150Z,5.60
2018-11-22T04:01:37.986Z,5.60
2018-11-22T04:04:19.568Z,5.60
2018-11-22T04:07:00.595Z,5.40
2018-11-22T04:09:42.357Z,5.50
2018-11-22T04:12:23.749Z,5.50
2018-11-22T04:15:05.468Z,5.70
2018-11-22T04:17:46.954Z,5.70
2018-11-22T04:20:29.326Z,5.70
2018-11-22T04:23:10.713Z,5.70
2018-11-22T04:25:52.539Z,5.60
2018-11-22T04:28:34.342Z,5.50
2018-11-22T04:31:15.468Z,5.50
2018-11-22T04:33:56.915Z,5.50
2018-11-22T04:36:38.132Z,5.50
2018-11-22T04:39:19.396Z,5.40
2018-11-22T04:41:48.422Z,5.40
2018-11-22T04:44:36.792Z,5.40
2018-11-22T04:47:25.111Z,5.40
2018-11-22T04:50:14.978Z,5.40
2018-11-22T04:53:03.324Z,5.50
2018-11-22T04:55:51.714Z,5.50
2018-11-22T04:58:40.142Z,5.60
2018-11-22T05:01:28.561Z,5.60
2018-11-22T05:04:16.952Z,5.50
2018-11-22T05:07:05.333Z,5.50
2018-11-22T05:09:53.765Z,5.40
2018-11-22T05:15:55.461Z,5.50
2018-11-22T05:18:43.845Z,5.50
2018-11-22T05:21:32.186Z,5.60
2018-11-22T05:24:20.642Z,5.60
2018-11-22T05:27:09.024Z,5.70
2018-11-22T05:33:10.949Z,5.60
2018-11-22T05:35:59.305Z,5.60
2018-11-22T05:38:47.648Z,5.60
2018-11-22T05:41:36.049Z,5.60
2018-11-22T05:44:24.398Z,5.60
2018-11-22T05:47:12.848Z,5.60
2018-11-22T05:50:01.301Z,5.50
2018-11-22T05:52:50.051Z,5.50
2018-11-22T05:55:38.435Z,5.50
2018-11-22T05:58:26.842Z,5.40
2018-11-22T06:01:16.413Z,5.40
2018-11-22T06:04:03.629Z,5.30
2018-11-22T06:06:52.032Z,5.40
2018-11-22T06:09:40.419Z,5.50
2018-11-22T06:12:28.814Z,5.50
2018-11-22T06:15:17.409Z,5.50
2018-11-22T06:18:05.768Z,5.60
2018-11-22T06:20:54.161Z,5.60
2018-11-22T06:27:17.050Z,5.50
2018-11-22T06:30:07.812Z,5.50
2018-11-22T06:36:17.709Z,5.60
2018-11-22T06:39:07.279Z,5.80
2018-11-22T06:41:55.642Z,5.90
2018-11-22T06:44:44.090Z,5.90
2018-11-22T06:47:32.493Z,5.80
2018-11-22T06:50:21.659Z,5.90
2018-11-22T06:53:10.042Z,6.00
2018-11-22T06:55:58.452Z,6.00
2018-11-22T06:58:46.800Z,6.00
2018-11-22T07:01:35.409Z,5.90
2018-11-22T07:04:23.530Z,5.80
2018-11-22T07:07:11.895Z,5.90
2018-11-22T07:10:00.278Z,6.00
2018-11-22T07:12:48.758Z,6.00
2018-11-22T07:15:37.117Z,6.00
2018-11-22T07:18:25.493Z,6.00
2018-11-22T07:24:27.945Z,5.90
2018-11-22T07:27:16.301Z,5.90
2018-11-22T07:30:05.240Z,5.80
2018-11-22T07:32:53.804Z,5.80
2018-11-22T07:35:42.181Z,5.90
2018-11-22T07:38:30.708Z,6.00
2018-11-22T07:41:19.131Z,6.10
2018-11-22T07:44:07.494Z,6.10
2018-11-22T07:46:55.951Z,5.90
2018-11-22T07:49:44.332Z,5.80
2018-11-22T07:52:34.820Z,5.80
2018-11-22T07:55:23.375Z,5.80
2018-11-22T08:01:01.152Z,5.70
2018-11-22T08:03:49.517Z,5.80
2018-11-22T08:06:37.923Z,5.80
2018-11-22T08:09:26.321Z,5.80
2018-11-22T08:12:14.710Z,5.90
2018-11-22T08:18:12.707Z,5.90
2018-11-22T08:21:04.778Z,5.90
2018-11-22T08:23:49.444Z,5.90
2018-11-22T08:26:37.791Z,6.00
2018-11-22T08:32:39.298Z,6.00
2018-11-22T08:35:27.719Z,6.00
2018-11-22T08:41:05.506Z,5.90
2018-11-22T08:43:53.850Z,5.90
2018-11-22T08:46:42.233Z,6.00
2018-11-22T08:49:30.601Z,5.90
2018-11-22T08:52:18.958Z,5.90
2018-11-22T08:55:07.721Z,6.00
2018-11-22T08:57:56.107Z,6.00
2018-11-22T09:00:44.448Z,6.00
2018-11-22T09:03:32.813Z,6.00
2018-11-22T09:06:14.149Z,6.00
2018-11-22T09:08:55.934Z,6.00
2018-11-22T09:11:37.282Z,5.90
2018-11-22T09:14:18.418Z,6.00
2018-11-22T09:16:59.258Z,6.00
2018-11-22T09:19:40.708Z,6.10
2018-11-22T09:22:21.759Z,6.10
2018-11-22T09:25:04.023Z,6.10
2018-11-22T09:27:45.193Z,6.20
2018-11-22T09:30:27.754Z,6.20
2018-11-22T09:33:09.486Z,6.20
2018-11-22T09:35:51.238Z,6.20
2018-11-22T09:38:32.457Z,6.20
2018-11-22T09:41:13.898Z,6.20
2018-11-22T09:43:55.197Z,6.20
2018-11-22T09:46:36.308Z,6.20
2018-11-22T09:49:17.619Z,6.20
2018-11-22T09:55:23.630Z,6.30
2018-11-22T09:58:04.880Z,6.40
2018-11-22T10:00:46.030Z,6.40
2018-11-22T10:03:26.960Z,6.30
2018-11-22T10:06:08.553Z,6.30
2018-11-22T10:08:49.682Z,6.30
2018-11-22T10:11:30.924Z,6.40
2018-11-22T10:14:11.883Z,6.40
2018-11-22T10:16:53.189Z,6.50
2018-11-22T10:19:34.237Z,6.60
2018-11-22T10:22:15.769Z,6.50
2018-11-22T10:24:57.326Z,6.50
2018-11-22T10:27:38.776Z,6.50
2018-11-22T10:30:20.327Z,6.60
2018-11-22T10:33:02.900Z,6.60
2018-11-22T10:35:44.719Z,6.70
2018-11-22T10:38:25.781Z,6.70
2018-11-22T10:41:26.412Z,6.60
2018-11-22T10:44:07.536Z,6.70
2018-11-22T10:46:48.480Z,6.70
2018-11-22T10:49:30.161Z,6.80
2018-11-22T10:52:11.604Z,6.80
2018-11-22T10:58:32.597Z,6.80
2018-11-22T11:01:33.208Z,6.80
2018-11-22T11:08:12.810Z,6.80
2018-11-22T11:10:54.226Z,6.80
2018-11-22T11:13:35.150Z,6.80
2018-11-22T11:16:16.745Z,6.90
2018-11-22T11:18:57.637Z,7.00
2018-11-22T11:21:38.736Z,7.10
2018-11-22T11:24:19.693Z,7.10
2018-11-22T11:27:01.348Z,7.10
2018-11-22T11:29:45.542Z,7.10
2018-11-22T11:32:28.113Z,7.10
2018-11-22T11:35:10.255Z,7.00
2018-11-22T11:37:51.094Z,7.00
2018-11-22T11:40:33.710Z,6.90
2018-11-22T11:43:14.577Z,7.00
2018-11-22T11:45:55.791Z,7.00
2018-11-22T11:48:37.582Z,7.00
2018-11-22T11:51:18.762Z,6.90
2018-11-22T11:54:00.436Z,7.00
2018-11-22T11:56:41.539Z,7.00
2018-11-22T11:59:22.720Z,7.10
2018-11-22T12:02:04.565Z,7.10
2018-11-22T12:04:45.821Z,7.10
2018-11-22T12:07:27.482Z,7.00
2018-11-22T12:10:08.757Z,6.90
2018-11-22T12:12:49.807Z,6.90
2018-11-22T12:15:31.142Z,6.90
2018-11-22T12:18:12.778Z,6.90
2018-11-22T12:20:54.411Z,6.80
2018-11-22T12:23:35.758Z,6.90
2018-11-22T12:26:17.201Z,6.90
2018-11-22T12:28:58.370Z,6.90
2018-11-22T12:31:40.144Z,7.00
2018-11-22T12:34:43.889Z,7.00
2018-11-22T12:37:44.119Z,7.00
2018-11-22T12:40:25.635Z,6.90
2018-11-22T12:43:06.798Z,7.00
2018-11-22T12:45:48.827Z,7.00
2018-11-22T12:48:29.970Z,7.00
2018-11-22T12:51:11.657Z,7.00
2018-11-22T12:53:52.669Z,7.10
2018-11-22T12:56:34.473Z,7.10
2018-11-22T12:59:15.706Z,7.10
2018-11-22T13:01:56.585Z,7.00
2018-11-22T13:04:38.089Z,6.90
2018-11-22T13:07:19.925Z,6.90
2018-11-22T13:10:00.841Z,7.00
2018-11-22T13:12:43.045Z,7.00
2018-11-22T13:15:24.676Z,7.10
2018-11-22T13:18:05.940Z,7.00
2018-11-22T13:20:47.629Z,7.10
2018-11-22T13:23:29.086Z,7.10
2018-11-22T13:26:09.979Z,7.10
2018-11-22T13:28:50.940Z,7.10
2018-11-22T13:31:32.105Z,7.10
2018-11-22T13:34:13.250Z,7.20
2018-11-22T13:36:57.261Z,7.20
2018-11-22T13:42:59.654Z,7.20
2018-11-22T13:45:40.657Z,7.20
2018-11-22T13:48:21.728Z,7.20
2018-11-22T13:51:03.161Z,7.20
2018-11-22T13:53:44.513Z,7.20
2018-11-22T13:56:26.051Z,7.10
2018-11-22T13:59:09.043Z,7.10
2018-11-22T14:01:50.148Z,7.10
2018-11-22T14:04:31.372Z,7.10
2018-11-22T14:07:12.364Z,7.10
2018-11-22T14:09:53.264Z,7.10
2018-11-22T14:12:35.395Z,7.10
2018-11-22T14:15:23.718Z,7.10
2018-11-22T14:18:05.591Z,7.00
2018-11-22T14:20:47.531Z,6.90
2018-11-22T14:23:28.433Z,6.80
2018-11-22T14:26:10.017Z,6.90
2018-11-22T14:28:51.716Z,6.90
2018-11-22T14:31:32.912Z,6.90
2018-11-22T14:34:14.123Z,6.90
2018-11-22T14:36:55.208Z,6.90
2018-11-22T14:39:36.842Z,6.90
2018-11-22T14:42:18.472Z,6.90
2018-11-22T14:44:59.616Z,7.00
2018-11-22T14:47:41.268Z,6.90
2018-11-22T14:50:22.484Z,7.00
2018-11-22T14:53:22.778Z,7.00
2018-11-22T15:02:31.246Z,6.90
2018-11-22T15:05:13.074Z,6.90
2018-11-22T15:07:54.462Z,6.70
2018-11-22T15:10:36.093Z,6.70
2018-11-22T15:13:17.518Z,6.70
2018-11-22T15:15:58.551Z,6.60
2018-11-22T15:18:39.845Z,6.70
2018-11-22T15:21:20.978Z,6.70
2018-11-22T15:24:02.619Z,6.60
2018-11-22T15:26:43.771Z,6.60
2018-11-22T15:29:24.889Z,6.70
2018-11-22T15:32:06.454Z,6.70
2018-11-22T15:34:48.276Z,6.70
2018-11-22T15:37:30.045Z,6.70
2018-11-22T15:40:12.100Z,6.70
2018-11-22T15:42:54.685Z,6.70
2018-11-22T15:45:36.025Z,6.80
2018-11-22T15:48:17.509Z,6.80
2018-11-22T15:50:58.350Z,6.70
2018-11-22T15:53:39.909Z,6.70
2018-11-22T15:56:21.594Z,6.70
2018-11-22T15:59:02.968Z,6.70
2018-11-22T16:01:44.090Z,6.60
2018-11-22T16:04:25.653Z,6.70
2018-11-22T16:07:07.101Z,6.70
2018-11-22T16:09:48.200Z,6.60
2018-11-22T16:12:29.599Z,6.60
2018-11-22T16:15:11.273Z,6.60
2018-11-22T16:17:52.723Z,6.60
2018-11-22T16:20:34.499Z,6.60
2018-11-22T16:23:16.023Z,6.60
2018-11-22T16:25:57.597Z,6.60
2018-11-22T16:28:39.018Z,6.60
2018-11-22T16:31:20.058Z,6.60
2018-11-22T16:34:01.107Z,6.50
2018-11-22T16:36:42.518Z,6.50
2018-11-22T16:39:24.046Z,6.50
2018-11-22T16:42:05.363Z,6.50
2018-11-22T16:44:46.771Z,6.50
2018-11-22T16:47:28.122Z,6.50
2018-11-22T16:50:09.427Z,6.50
2018-11-22T16:52:50.765Z,6.50
2018-11-22T16:55:31.817Z,6.50
2018-11-22T16:58:12.908Z,6.40
2018-11-22T17:00:54.682Z,6.50
2018-11-22T17:03:36.322Z,6.50
2018-11-22T17:06:17.695Z,6.40
2018-11-22T17:08:59.163Z,6.40
2018-11-22T17:11:43.280Z,6.40
2018-11-22T17:14:25.034Z,6.40
2018-11-22T17:17:06.613Z,6.40
2018-11-22T17:19:47.885Z,6.30
2018-11-22T17:22:29.329Z,6.40
2018-11-22T17:25:12.052Z,6.30
2018-11-22T17:27:55.368Z,6.40
2018-11-22T17:30:38.577Z,6.40
2018-11-22T17:33:20.104Z,6.40
2018-11-22T17:36:01.759Z,6.40
2018-11-22T17:38:43.222Z,6.40
2018-11-22T17:41:24.162Z,6.40
2018-11-22T17:44:05.689Z,6.40
2018-11-22T17:46:46.736Z,6.40
2018-11-22T17:49:28.308Z,6.40
2018-11-22T17:52:09.486Z,6.40
2018-11-22T17:54:50.829Z,6.40
2018-11-22T17:57:31.887Z,6.40
2018-11-22T18:00:14.091Z,6.40
2018-11-22T18:02:56.494Z,6.50
2018-11-22T18:05:37.759Z,6.50
2018-11-22T18:08:19.195Z,6.50
2018-11-22T18:11:00.689Z,6.50
2018-11-22T18:13:41.755Z,6.50
2018-11-22T18:16:23.421Z,6.50
2018-11-22T18:19:04.721Z,6.50
2018-11-22T18:21:46.029Z,6.50
2018-11-22T18:24:27.413Z,6.40
2018-11-22T18:27:08.683Z,6.40
2018-11-22T18:29:49.821Z,6.40
2018-11-22T18:32:31.575Z,6.40
2018-11-22T18:35:13.794Z,6.50
2018-11-22T18:37:54.873Z,6.50
2018-11-22T18:40:38.040Z,6.40
2018-11-22T18:43:19.224Z,6.30
2018-11-22T18:46:00.342Z,6.20
2018-11-22T18:48:41.518Z,6.10
2018-11-22T18:51:22.695Z,6.00
2018-11-22T18:54:03.900Z,6.10
2018-11-22T18:56:45.164Z,6.10
2018-11-22T18:59:26.219Z,6.10
2018-11-22T19:02:08.121Z,6.10
2018-11-22T19:04:48.908Z,6.10
2018-11-22T19:07:30.739Z,6.20
2018-11-22T19:10:13.745Z,6.20
2018-11-22T19:12:56.639Z,6.10
2018-11-22T19:15:41.938Z,6.10
2018-11-22T19:18:23.092Z,6.10
2018-11-22T19:21:04.325Z,6.10
2018-11-22T19:23:45.786Z,6.10
2018-11-22T19:26:26.874Z,6.00
2018-11-22T19:29:08.039Z,6.00
2018-11-22T19:31:49.660Z,6.00
2018-11-22T19:34:30.793Z,6.00
2018-11-22T19:37:12.188Z,6.00
2018-11-22T19:39:53.402Z,5.90
2018-11-22T19:42:34.262Z,5.90
2018-11-22T19:45:16.789Z,5.90
2018-11-22T19:47:58.018Z,5.90
2018-11-22T19:50:39.703Z,5.90
2018-11-22T19:53:21.116Z,5.90
2018-11-22T19:56:02.141Z,5.80
2018-11-22T19:58:43.318Z,5.80
2018-11-22T20:01:24.463Z,5.80
2018-11-22T20:04:05.776Z,5.80
2018-11-22T20:06:47.165Z,5.80
2018-11-22T20:09:28.215Z,5.70
2018-11-22T20:12:09.062Z,5.70
2018-11-22T20:14:50.462Z,5.70
2018-11-22T20:17:32.281Z,5.70
2018-11-22T20:20:14.770Z,5.60
2018-11-22T20:22:56.444Z,5.50
2018-11-22T20:25:37.986Z,5.60
2018-11-22T20:28:19.412Z,5.60
2018-11-22T20:31:00.325Z,5.60
2018-11-22T20:33:41.724Z,5.50
2018-11-22T20:36:23.491Z,5.50
2018-11-22T20:39:05.046Z,5.50
2018-11-22T20:41:46.617Z,5.40
2018-11-22T20:44:28.050Z,5.50
2018-11-22T20:47:12.209Z,5.50
2018-11-22T20:49:53.756Z,5.50
2018-11-22T20:52:34.740Z,5.50
2018-11-22T20:55:20.813Z,5.40
2018-11-22T20:58:03.652Z,5.40
2018-11-22T21:00:45.287Z,5.40
2018-11-22T21:03:26.557Z,5.40
2018-11-22T21:06:07.476Z,5.40
2018-11-22T21:08:48.919Z,5.40
2018-11-22T21:11:30.710Z,5.40
2018-11-22T21:14:11.916Z,5.40
2018-11-22T21:16:53.431Z,5.40
2018-11-22T21:19:34.934Z,5.30
2018-11-22T21:22:16.588Z,5.30
2018-11-22T21:24:57.677Z,5.30
2018-11-22T21:27:38.812Z,5.30
2018-11-22T21:30:39.465Z,5.20
2018-11-22T21:33:20.497Z,5.20
2018-11-22T21:36:02.204Z,5.20
2018-11-22T21:38:43.545Z,5.20
2018-11-22T21:41:24.688Z,5.20
2018-11-22T21:44:06.190Z,5.10
2018-11-22T21:46:47.545Z,5.10
2018-11-22T21:49:28.612Z,5.10
2018-11-22T21:52:09.965Z,5.10
2018-11-22T21:54:51.322Z,5.10
2018-11-22T21:57:32.302Z,5.10
2018-11-22T22:00:13.744Z,5.10
2018-11-22T22:02:55.439Z,5.10
2018-11-22T22:05:36.441Z,5.00
2018-11-22T22:08:17.733Z,5.00
2018-11-22T22:10:59.312Z,5.00
2018-11-22T22:13:40.417Z,5.10
2018-11-22T22:16:21.551Z,5.10
2018-11-22T22:19:02.895Z,5.20
2018-11-22T22:21:44.006Z,5.20
2018-11-22T22:24:25.587Z,5.20
2018-11-22T22:27:06.590Z,5.30
2018-11-22T22:29:48.059Z,5.20
2018-11-22T22:32:29.599Z,5.20
2018-11-22T22:35:11.268Z,5.30
2018-11-22T22:37:52.843Z,5.30
2018-11-22T22:40:34.264Z,5.30
2018-11-22T22:43:15.899Z,5.30
2018-11-22T22:45:57.240Z,5.20
2018-11-22T22:48:38.822Z,5.20
2018-11-22T22:51:20.017Z,5.20
2018-11-22T22:54:01.509Z,5.20
2018-11-22T22:56:42.665Z,5.20
2018-11-22T22:59:24.377Z,5.20
2018-11-22T23:02:05.773Z,5.20
2018-11-22T23:04:46.871Z,5.20
2018-11-22T23:07:27.969Z,5.20
2018-11-22T23:10:09.407Z,5.20
2018-11-22T23:12:50.698Z,5.20
2018-11-22T23:15:32.070Z,5.20
2018-11-22T23:18:13.864Z,5.20
2018-11-22T23:20:57.982Z,5.20
2018-11-22T23:23:39.520Z,5.10
2018-11-22T23:26:20.482Z,5.10
2018-11-22T23:29:01.502Z,5.10
2018-11-22T23:31:42.452Z,5.10
2018-11-22T23:34:23.754Z,5.10
2018-11-22T23:37:05.349Z,5.10
2018-11-22T23:39:46.898Z,5.00
2018-11-22T23:42:28.529Z,5.10
2018-11-22T23:45:10.558Z,5.00
2018-11-22T23:47:51.924Z,5.10
2018-11-22T23:50:33.412Z,5.00
2018-11-22T23:53:14.591Z,5.00
2018-11-22T23:55:55.875Z,5.00
2018-11-22T23:58:36.851Z,4.90
